Time;durP1;ratioP1;P1;durP2;ratioP2;P2;SDS_P1;SDS_P2;PMS_P1;PMS_P2;Temp;Humidity;BMP_temperature;BMP_pressure;BME280_temperature;BME280_humidity;BME280_pressure;Samples;Min_cycle;Max_cycle;Signal;HPM_P1;HPM_P2
2022/06/29 00:02:02;;;;;;;3.90;3.17;;;;;;;;;;5082079;28;20496;-70
2022/06/29 00:04:30;;;;;;;4.00;3.70;;;;;;;;;;5082156;28;20199;-69
2022/06/29 00:06:56;;;;;;;3.60;3.42;;;;;;;;;;5081884;28;20500;-69
2022/06/29 00:09:22;;;;;;;3.53;3.25;;;;;;;;;;5081959;28;20422;-69
2022/06/29 00:11:49;;;;;;;3.90;3.58;;;;;;;;;;5081907;28;20197;-69
2022/06/29 00:14:15;;;;;;;7.78;3.50;;;;;;;;;;5081670;28;20212;-69
2022/06/29 00:16:41;;;;;;;4.18;3.88;;;;;;;;;;5083596;28;20220;-69
2022/06/29 00:19:08;;;;;;;6.78;3.78;;;;;;;;;;5085671;28;20196;-69
2022/06/29 00:21:35;;;;;;;3.85;3.55;;;;;;;;;;5085407;28;20196;-69
2022/06/29 00:24:01;;;;;;;3.95;3.72;;;;;;;;;;5085289;28;20196;-69
2022/06/29 00:26:28;;;;;;;3.88;3.60;;;;;;;;;;5085035;28;20193;-70
2022/06/29 00:28:55;;;;;;;6.80;3.60;;;;;;;;;;5085600;28;20431;-69
2022/06/29 00:31:21;;;;;;;3.72;3.45;;;;;;;;;;5085103;28;20208;-69
2022/06/29 00:33:47;;;;;;;3.70;3.40;;;;;;;;;;5085018;28;20223;-69
2022/06/29 00:36:13;;;;;;;5.97;3.95;;;;;;;;;;5084936;28;20211;-69
2022/06/29 00:38:41;;;;;;;4.40;4.00;;;;;;;;;;5085525;28;20219;-69
2022/06/29 00:41:07;;;;;;;4.45;4.03;;;;;;;;;;5085107;28;20242;-69
2022/06/29 00:43:39;;;;;;;3.97;3.65;;;;;;;;;;5085406;28;20204;-69
2022/06/29 00:46:06;;;;;;;5.80;3.80;;;;;;;;;;5084791;28;20203;-69
2022/06/29 00:48:32;;;;;;;4.50;4.10;;;;;;;;;;5084936;28;20234;-69
2022/06/29 00:50:59;;;;;;;3.83;3.70;;;;;;;;;;5084987;28;20411;-69
2022/06/29 00:53:28;;;;;;;4.65;4.15;;;;;;;;;;5084606;28;20196;-69
2022/06/29 00:55:57;;;;;;;4.22;4.00;;;;;;;;;;5084566;28;20188;-69
2022/06/29 00:58:26;;;;;;;8.40;4.00;;;;;;;;;;5084840;28;20200;-69
2022/06/29 01:00:53;;;;;;;7.75;4.22;;;;;;;;;;5084762;28;20196;-69
2022/06/29 01:03:19;;;;;;;7.07;4.28;;;;;;;;;;5084821;28;20197;-69
2022/06/29 01:05:47;;;;;;;4.10;4.00;;;;;;;;;;5084644;28;20558;-69
2022/06/29 01:08:13;;;;;;;4.70;4.50;;;;;;;;;;5084345;28;20219;-69
2022/06/29 01:10:43;;;;;;;4.40;4.13;;;;;;;;;;5084586;28;20197;-70
2022/06/29 01:13:14;;;;;;;5.03;3.85;;;;;;;;;;5084571;28;20203;-70
2022/06/29 01:15:41;;;;;;;4.55;4.15;;;;;;;;;;5084424;28;20225;-71
2022/06/29 01:18:07;;;;;;;6.15;4.60;;;;;;;;;;5084160;28;20197;-68
2022/06/29 01:20:34;;;;;;;4.95;4.55;;;;;;;;;;5084248;28;20240;-68
2022/06/29 01:23:02;;;;;;;4.60;4.40;;;;;;;;;;5084166;28;20203;-68
2022/06/29 01:25:28;;;;;;;8.45;4.43;;;;;;;;;;5084450;28;20199;-69
2022/06/29 01:27:54;;;;;;;5.60;4.45;;;;;;;;;;5082371;28;20211;-69
2022/06/29 01:30:21;;;;;;;4.20;3.90;;;;;;;;;;5084126;28;20377;-69
2022/06/29 01:32:47;;;;;;;5.57;5.13;;;;;;;;;;5083959;28;20196;-69
2022/06/29 01:35:16;;;;;;;6.07;4.25;;;;;;;;;;5084190;28;20223;-69
2022/06/29 01:37:43;;;;;;;5.13;4.65;;;;;;;;;;5083574;28;20235;-69
2022/06/29 01:40:11;;;;;;;7.65;5.05;;;;;;;;;;5083873;28;20196;-69
2022/06/29 01:42:38;;;;;;;5.57;5.10;;;;;;;;;;5083930;28;20550;-69
2022/06/29 01:45:04;;;;;;;7.85;5.32;;;;;;;;;;5083646;28;20199;-69
2022/06/29 01:47:31;;;;;;;5.50;5.00;;;;;;;;;;5083826;28;20515;-69
2022/06/29 01:49:57;;;;;;;9.00;4.95;;;;;;;;;;5083625;28;20196;-69
2022/06/29 01:52:23;;;;;;;5.35;4.85;;;;;;;;;;5083549;28;20196;-69
2022/06/29 01:54:49;;;;;;;6.30;4.60;;;;;;;;;;5083809;28;20217;-69
2022/06/29 01:57:17;;;;;;;6.22;4.32;;;;;;;;;;5083385;28;20196;-69
2022/06/29 01:59:44;;;;;;;5.10;4.60;;;;;;;;;;5083292;28;20200;-69
2022/06/29 02:02:10;;;;;;;5.30;4.85;;;;;;;;;;5083686;28;20196;-69
2022/06/29 02:04:37;;;;;;;4.80;4.30;;;;;;;;;;5083418;28;20435;-69
2022/06/29 02:07:03;;;;;;;6.07;4.80;;;;;;;;;;5083212;28;20249;-69
2022/06/29 02:09:29;;;;;;;5.00;4.70;;;;;;;;;;5083463;28;20643;-69
2022/06/29 02:11:55;;;;;;;5.97;5.13;;;;;;;;;;5083326;28;20515;-69
2022/06/29 02:14:23;;;;;;;5.30;4.82;;;;;;;;;;5083047;28;20267;-70
2022/06/29 02:16:56;;;;;;;5.25;4.82;;;;;;;;;;5083452;28;20214;-70
2022/06/29 02:19:23;;;;;;;10.13;4.68;;;;;;;;;;5083412;28;20231;-71
2022/06/29 02:21:52;;;;;;;9.25;4.75;;;;;;;;;;5083724;28;20222;-70
2022/06/29 02:24:18;;;;;;;5.30;4.80;;;;;;;;;;5082963;28;20283;-70
2022/06/29 02:26:45;;;;;;;4.40;4.10;;;;;;;;;;5082765;28;20196;-70
2022/06/29 02:29:11;;;;;;;5.50;5.00;;;;;;;;;;5082990;28;20219;-70
2022/06/29 02:37:06;;;;;;;4.95;4.22;;;;;;;;;;5082617;28;20222;-68
2022/06/29 02:39:32;;;;;;;4.82;4.28;;;;;;;;;;5082429;28;20251;-68
2022/06/29 02:41:59;;;;;;;6.45;4.70;;;;;;;;;;5082844;28;20200;-68
2022/06/29 02:44:25;;;;;;;4.75;4.45;;;;;;;;;;5082770;28;20192;-68
2022/06/29 02:46:53;;;;;;;6.68;4.28;;;;;;;;;;5082576;28;20242;-68
2022/06/29 02:49:19;;;;;;;7.75;4.72;;;;;;;;;;5082737;28;20200;-68
2022/06/29 02:51:45;;;;;;;4.63;4.20;;;;;;;;;;5082393;28;20208;-68
2022/06/29 02:54:12;;;;;;;4.68;4.25;;;;;;;;;;5082396;28;20221;-68
2022/06/29 02:56:38;;;;;;;5.55;4.40;;;;;;;;;;5082516;28;20291;-68
2022/06/29 02:59:04;;;;;;;5.18;4.78;;;;;;;;;;5082736;28;20200;-68
2022/06/29 03:01:30;;;;;;;4.15;3.95;;;;;;;;;;5082486;28;20223;-68
2022/06/29 03:03:58;;;;;;;5.55;4.80;;;;;;;;;;5082572;28;20203;-68
2022/06/29 03:06:24;;;;;;;5.25;4.75;;;;;;;;;;5082122;28;20230;-68
2022/06/29 03:08:51;;;;;;;5.53;4.82;;;;;;;;;;5082343;28;20196;-68
2022/06/29 03:11:17;;;;;;;4.68;4.25;;;;;;;;;;5082411;28;20241;-68
2022/06/29 03:13:43;;;;;;;5.38;4.50;;;;;;;;;;5082462;28;20196;-68
2022/06/29 03:16:09;;;;;;;7.32;5.10;;;;;;;;;;5082168;28;20538;-68
2022/06/29 03:18:36;;;;;;;5.75;4.95;;;;;;;;;;5082403;28;20203;-70
2022/06/29 03:21:04;;;;;;;5.00;4.70;;;;;;;;;;5082767;28;20192;-70
2022/06/29 03:23:30;;;;;;;5.30;4.70;;;;;;;;;;5082372;28;20246;-69
2022/06/29 03:25:57;;;;;;;4.63;4.50;;;;;;;;;;5082304;28;20196;-69
2022/06/29 03:28:23;;;;;;;5.60;5.10;;;;;;;;;;5082235;28;20196;-69
2022/06/29 03:30:49;;;;;;;12.88;5.03;;;;;;;;;;5082166;28;20205;-69
2022/06/29 03:33:15;;;;;;;5.50;4.97;;;;;;;;;;5082231;28;20468;-69
2022/06/29 03:35:42;;;;;;;5.68;4.75;;;;;;;;;;5081914;28;20261;-69
2022/06/29 03:38:09;;;;;;;5.82;5.32;;;;;;;;;;5082202;28;20567;-69
2022/06/29 03:40:35;;;;;;;6.65;4.95;;;;;;;;;;5082330;28;20547;-69
2022/06/29 03:43:02;;;;;;;6.22;5.63;;;;;;;;;;5082173;28;20196;-69
2022/06/29 03:45:28;;;;;;;5.78;4.97;;;;;;;;;;5082090;28;20192;-69
2022/06/29 03:47:54;;;;;;;7.68;4.97;;;;;;;;;;5081842;28;20196;-69
2022/06/29 03:50:20;;;;;;;5.32;4.93;;;;;;;;;;5081945;28;20420;-69
2022/06/29 03:52:49;;;;;;;5.10;4.80;;;;;;;;;;5086044;28;20257;-69
2022/06/29 03:55:16;;;;;;;5.55;5.10;;;;;;;;;;5085911;28;20220;-69
2022/06/29 03:57:42;;;;;;;5.57;5.03;;;;;;;;;;5085515;28;20242;-69
2022/06/29 04:00:10;;;;;;;5.68;5.20;;;;;;;;;;5085794;28;20207;-69
2022/06/29 04:02:36;;;;;;;6.15;5.43;;;;;;;;;;5085754;28;20235;-69
2022/06/29 04:05:04;;;;;;;5.05;4.85;;;;;;;;;;5085939;28;20213;-69
2022/06/29 04:07:30;;;;;;;6.32;5.20;;;;;;;;;;5085679;28;20427;-69
2022/06/29 04:09:59;;;;;;;5.85;5.38;;;;;;;;;;5085642;28;20205;-69
2022/06/29 04:12:27;;;;;;;5.85;5.30;;;;;;;;;;5085537;28;20196;-69
2022/06/29 04:14:53;;;;;;;6.45;5.03;;;;;;;;;;5085374;28;20528;-69
2022/06/29 04:17:19;;;;;;;5.13;4.78;;;;;;;;;;5085094;28;20196;-68
2022/06/29 04:19:46;;;;;;;7.15;5.35;;;;;;;;;;5085283;28;20196;-68
2022/06/29 04:22:12;;;;;;;6.47;6.07;;;;;;;;;;5085228;28;20234;-68
2022/06/29 04:24:38;;;;;;;6.15;5.70;;;;;;;;;;5085439;28;20196;-68
2022/06/29 04:27:04;;;;;;;7.80;7.10;;;;;;;;;;5085252;28;20200;-68
2022/06/29 04:29:32;;;;;;;10.98;6.57;;;;;;;;;;5085212;28;20196;-68
2022/06/29 04:31:58;;;;;;;6.97;6.47;;;;;;;;;;5084954;28;20504;-68
2022/06/29 04:34:25;;;;;;;7.75;6.07;;;;;;;;;;5085296;28;20317;-68
2022/06/29 04:36:52;;;;;;;7.20;6.57;;;;;;;;;;5084952;28;20197;-68
2022/06/29 04:39:18;;;;;;;6.68;6.07;;;;;;;;;;5085098;28;20263;-68
2022/06/29 04:41:45;;;;;;;6.70;6.15;;;;;;;;;;5085402;28;20365;-68
2022/06/29 04:44:11;;;;;;;10.88;6.15;;;;;;;;;;5084989;28;20235;-68
2022/06/29 04:46:39;;;;;;;8.60;6.30;;;;;;;;;;5084558;28;20201;-69
2022/06/29 04:49:05;;;;;;;7.07;6.38;;;;;;;;;;5085096;28;20203;-68
2022/06/29 04:51:32;;;;;;;7.03;5.95;;;;;;;;;;5084945;28;20234;-69
2022/06/29 04:53:59;;;;;;;7.18;6.55;;;;;;;;;;5084931;28;20373;-69
2022/06/29 04:56:27;;;;;;;6.90;6.30;;;;;;;;;;5084335;28;20242;-69
2022/06/29 04:58:54;;;;;;;6.68;6.15;;;;;;;;;;5084688;28;20197;-69
2022/06/29 05:01:21;;;;;;;8.20;6.70;;;;;;;;;;5084806;28;20196;-69
2022/06/29 05:03:48;;;;;;;7.07;6.57;;;;;;;;;;5084826;28;20410;-69
2022/06/29 05:06:14;;;;;;;8.82;6.10;;;;;;;;;;5084352;28;20216;-69
2022/06/29 05:08:41;;;;;;;6.57;5.97;;;;;;;;;;5084619;28;20302;-69
2022/06/29 05:11:07;;;;;;;7.47;6.80;;;;;;;;;;5084640;28;20423;-70
2022/06/29 05:13:33;;;;;;;7.30;6.80;;;;;;;;;;5084200;28;20192;-69
2022/06/29 05:16:00;;;;;;;6.70;6.30;;;;;;;;;;5084020;28;20420;-69
2022/06/29 05:18:28;;;;;;;7.28;6.53;;;;;;;;;;5084314;28;20196;-69
2022/06/29 05:20:55;;;;;;;7.78;7.20;;;;;;;;;;5084358;28;20200;-69
2022/06/29 05:23:21;;;;;;;8.00;7.28;;;;;;;;;;5084324;28;20365;-69
2022/06/29 05:25:48;;;;;;;7.07;6.40;;;;;;;;;;5084100;28;20196;-69
2022/06/29 05:28:14;;;;;;;9.68;8.77;;;;;;;;;;5083740;28;20203;-69
2022/06/29 05:30:40;;;;;;;9.35;8.63;;;;;;;;;;5084086;28;20204;-69
2022/06/29 05:33:06;;;;;;;11.85;7.78;;;;;;;;;;5084163;28;20250;-69
2022/06/29 05:35:33;;;;;;;7.30;6.78;;;;;;;;;;5083990;28;20216;-69
2022/06/29 05:38:01;;;;;;;7.45;6.85;;;;;;;;;;5083668;28;20391;-69
2022/06/29 05:40:27;;;;;;;6.43;5.93;;;;;;;;;;5083841;28;20198;-69
2022/06/29 05:42:54;;;;;;;10.50;6.45;;;;;;;;;;5083707;28;20230;-69
2022/06/29 05:45:20;;;;;;;9.15;6.82;;;;;;;;;;5083770;28;20200;-69
2022/06/29 05:47:46;;;;;;;7.05;6.50;;;;;;;;;;5083661;28;20197;-69
2022/06/29 05:50:13;;;;;;;7.90;6.85;;;;;;;;;;5083625;28;20223;-69
2022/06/29 05:52:39;;;;;;;6.40;5.88;;;;;;;;;;5083697;28;20254;-69
2022/06/29 05:55:07;;;;;;;7.55;6.85;;;;;;;;;;5083472;28;20249;-69
2022/06/29 05:57:34;;;;;;;7.35;6.60;;;;;;;;;;5075362;28;21078;-69
2022/06/29 06:00:02;;;;;;;8.07;6.45;;;;;;;;;;5075879;28;20212;-69
2022/06/29 06:02:29;;;;;;;9.30;6.63;;;;;;;;;;5077113;28;20208;-71
2022/06/29 06:04:55;;;;;;;6.72;6.13;;;;;;;;;;5077232;28;20224;-61
2022/06/29 06:07:21;;;;;;;9.23;8.32;;;;;;;;;;5075912;28;20254;-63
2022/06/29 06:09:47;;;;;;;7.22;6.63;;;;;;;;;;5077141;28;20223;-63
2022/06/29 06:12:16;;;;;;;7.75;6.15;;;;;;;;;;5077060;28;20250;-63
2022/06/29 06:14:42;;;;;;;7.03;6.32;;;;;;;;;;5077237;28;20222;-63
2022/06/29 06:17:09;;;;;;;6.50;6.00;;;;;;;;;;5076169;28;20428;-63
2022/06/29 06:19:35;;;;;;;9.80;6.50;;;;;;;;;;5076436;28;21504;-62
2022/06/29 06:22:01;;;;;;;10.07;7.25;;;;;;;;;;5072987;28;20432;-62
2022/06/29 06:24:27;;;;;;;7.45;6.85;;;;;;;;;;5074198;28;20216;-62
2022/06/29 06:26:54;;;;;;;6.88;6.38;;;;;;;;;;5075081;28;20218;-64
2022/06/29 06:29:22;;;;;;;6.20;5.80;;;;;;;;;;5075042;28;20220;-65
2022/06/29 06:31:48;;;;;;;7.22;6.63;;;;;;;;;;5075978;28;20228;-62
2022/06/29 06:34:14;;;;;;;7.00;6.15;;;;;;;;;;5074202;28;20212;-63
2022/06/29 06:36:40;;;;;;;6.35;5.85;;;;;;;;;;5073875;28;20297;-62
2022/06/29 06:39:07;;;;;;;7.53;6.53;;;;;;;;;;5072003;28;20212;-62
2022/06/29 06:41:32;;;;;;;6.45;5.85;;;;;;;;;;5073025;28;20500;-62
2022/06/29 06:43:59;;;;;;;6.75;6.18;;;;;;;;;;5074316;28;20212;-62
2022/06/29 06:46:28;;;;;;;8.70;7.20;;;;;;;;;;5074547;28;20250;-62
2022/06/29 06:48:54;;;;;;;6.80;6.20;;;;;;;;;;5073467;28;20258;-62
2022/06/29 06:51:21;;;;;;;7.20;6.55;;;;;;;;;;5074364;28;20277;-62
2022/06/29 06:53:48;;;;;;;6.65;6.15;;;;;;;;;;5074715;28;20216;-62
2022/06/29 06:56:14;;;;;;;9.15;8.23;;;;;;;;;;5073548;28;20297;-62
2022/06/29 06:58:41;;;;;;;8.38;7.60;;;;;;;;;;5074578;28;20220;-62
2022/06/29 07:01:07;;;;;;;8.23;6.45;;;;;;;;;;5073270;28;20278;-62
2022/06/29 07:03:36;;;;;;;7.10;6.40;;;;;;;;;;5075116;28;20254;-62
2022/06/29 07:06:04;;;;;;;7.78;7.00;;;;;;;;;;5074362;28;20231;-63
2022/06/29 07:08:31;;;;;;;11.73;7.50;;;;;;;;;;5074418;28;20255;-62
2022/06/29 07:10:57;;;;;;;8.02;6.60;;;;;;;;;;5073894;28;20527;-61
2022/06/29 07:13:23;;;;;;;7.22;6.53;;;;;;;;;;5074935;28;20281;-62
2022/06/29 07:15:50;;;;;;;7.03;6.35;;;;;;;;;;5074689;28;20235;-62
2022/06/29 07:18:16;;;;;;;21.00;6.88;;;;;;;;;;5073865;28;20212;-63
2022/06/29 07:20:43;;;;;;;10.38;6.75;;;;;;;;;;5074010;28;20602;-62
2022/06/29 07:23:10;;;;;;;7.85;5.80;;;;;;;;;;5074187;28;20212;-60
2022/06/29 07:25:40;;;;;;;7.40;6.70;;;;;;;;;;5074777;28;20212;-62
2022/06/29 07:28:08;;;;;;;7.93;7.22;;;;;;;;;;5076719;28;20254;-63
2022/06/29 07:30:34;;;;;;;8.13;7.50;;;;;;;;;;5075164;28;20483;-63
2022/06/29 07:33:00;;;;;;;7.95;6.70;;;;;;;;;;5077280;28;20529;-62
2022/06/29 07:35:27;;;;;;;8.88;6.75;;;;;;;;;;5078253;28;20216;-63
2022/06/29 07:37:54;;;;;;;10.48;6.35;;;;;;;;;;5077239;28;20212;-63
2022/06/29 07:40:21;;;;;;;11.50;6.43;;;;;;;;;;5074278;28;20530;-63
2022/06/29 07:42:48;;;;;;;11.68;7.40;;;;;;;;;;5076755;28;20204;-63
2022/06/29 07:45:14;;;;;;;5.90;5.25;;;;;;;;;;5077802;28;20216;-62
2022/06/29 07:47:40;;;;;;;7.28;5.82;;;;;;;;;;5076238;28;20208;-62
2022/06/29 07:50:07;;;;;;;9.90;6.50;;;;;;;;;;5076969;28;20212;-62
2022/06/29 07:52:33;;;;;;;10.57;6.32;;;;;;;;;;5077238;28;20212;-62
2022/06/29 07:55:01;;;;;;;8.25;6.03;;;;;;;;;;5077783;28;20216;-61
2022/06/29 07:57:36;;;;;;;10.75;8.05;;;;;;;;;;5077082;28;20327;-62
2022/06/29 08:00:03;;;;;;;7.88;6.28;;;;;;;;;;5077210;28;20207;-63
2022/06/29 08:02:29;;;;;;;6.97;6.22;;;;;;;;;;5077263;28;20212;-63
2022/06/29 08:04:55;;;;;;;10.02;6.38;;;;;;;;;;5076927;28;20228;-63
2022/06/29 08:07:22;;;;;;;7.03;6.30;;;;;;;;;;5078195;28;20224;-64
2022/06/29 08:09:48;;;;;;;6.95;6.05;;;;;;;;;;5077882;28;20215;-61
2022/06/29 08:12:17;;;;;;;8.32;5.55;;;;;;;;;;5077756;28;20212;-61
2022/06/29 08:14:43;;;;;;;9.57;6.53;;;;;;;;;;5076628;28;20512;-61
2022/06/29 08:17:09;;;;;;;6.95;5.10;;;;;;;;;;5077514;28;20473;-61
2022/06/29 08:19:35;;;;;;;6.20;5.60;;;;;;;;;;5077333;28;20216;-63
2022/06/29 08:22:02;;;;;;;6.18;5.68;;;;;;;;;;5076799;28;20216;-61
2022/06/29 08:24:28;;;;;;;8.43;5.85;;;;;;;;;;5076750;28;20215;-62
2022/06/29 08:26:54;;;;;;;7.28;5.88;;;;;;;;;;5077351;28;20524;-61
2022/06/29 08:29:22;;;;;;;6.28;5.05;;;;;;;;;;5076596;28;20219;-61
2022/06/29 08:31:48;;;;;;;7.25;6.35;;;;;;;;;;5076729;28;20224;-59
2022/06/29 08:34:14;;;;;;;8.60;5.05;;;;;;;;;;5076774;28;20215;-60
2022/06/29 08:36:40;;;;;;;9.50;5.25;;;;;;;;;;5075901;28;20563;-60
2022/06/29 08:39:10;;;;;;;7.63;5.65;;;;;;;;;;5076930;28;20538;-60
2022/06/29 08:41:38;;;;;;;6.95;5.30;;;;;;;;;;5076398;28;20212;-59
2022/06/29 08:44:06;;;;;;;6.60;6.13;;;;;;;;;;5076649;28;20204;-61
2022/06/29 08:46:34;;;;;;;9.77;8.73;;;;;;;;;;5075927;28;20524;-60
2022/06/29 08:49:02;;;;;;;15.73;10.82;;;;;;;;;;5076909;28;20591;-61
2022/06/29 08:51:32;;;;;;;9.57;5.50;;;;;;;;;;5075968;28;20543;-60
2022/06/29 08:53:59;;;;;;;6.70;6.15;;;;;;;;;;5074430;28;20204;-61
2022/06/29 08:56:25;;;;;;;6.00;5.40;;;;;;;;;;5075377;28;20435;-61
2022/06/29 08:58:52;;;;;;;6.10;5.63;;;;;;;;;;5077169;28;20215;-60
2022/06/29 09:01:18;;;;;;;6.72;5.55;;;;;;;;;;5076328;28;20222;-60
2022/06/29 09:03:46;;;;;;;5.47;4.95;;;;;;;;;;5075906;28;20234;-60
2022/06/29 09:06:12;;;;;;;4.72;4.43;;;;;;;;;;5075605;28;20640;-60
2022/06/29 09:08:38;;;;;;;7.95;5.22;;;;;;;;;;5076410;28;20212;-60
2022/06/29 09:11:24;;;;;;;4.30;4.00;;;;;;;;;;5075409;28;20216;-60
2022/06/29 09:14:05;;;;;;;5.15;4.78;;;;;;;;;;5073030;28;20261;-59
2022/06/29 09:16:31;;;;;;;5.00;4.60;;;;;;;;;;5073469;28;20612;-60
2022/06/29 09:18:59;;;;;;;4.63;4.43;;;;;;;;;;5076002;28;20535;-60
2022/06/29 09:21:25;;;;;;;5.00;4.65;;;;;;;;;;5076161;28;20243;-60
2022/06/29 09:23:52;;;;;;;4.63;4.32;;;;;;;;;;5077052;28;20220;-60
2022/06/29 09:26:18;;;;;;;5.60;5.05;;;;;;;;;;5075949;28;20207;-60
2022/06/29 09:28:44;;;;;;;5.50;4.65;;;;;;;;;;5075597;28;20254;-60
2022/06/29 09:31:11;;;;;;;4.80;4.47;;;;;;;;;;5075876;28;20230;-60
2022/06/29 09:33:37;;;;;;;8.25;4.00;;;;;;;;;;5076024;28;20211;-60
2022/06/29 09:36:06;;;;;;;3.90;3.53;;;;;;;;;;5075805;28;20211;-62
2022/06/29 09:38:32;;;;;;;3.78;3.50;;;;;;;;;;5075108;28;20216;-62
2022/06/29 09:40:59;;;;;;;3.60;3.28;;;;;;;;;;5076364;28;20220;-62
2022/06/29 09:43:26;;;;;;;4.45;4.05;;;;;;;;;;5075974;28;20211;-60
2022/06/29 09:45:52;;;;;;;4.00;3.80;;;;;;;;;;5075753;28;20234;-60
2022/06/29 09:48:20;;;;;;;5.32;3.78;;;;;;;;;;5074864;28;20212;-61
2022/06/29 09:50:47;;;;;;;6.10;3.83;;;;;;;;;;5075050;28;20218;-61
2022/06/29 09:53:15;;;;;;;3.63;3.22;;;;;;;;;;5075498;28;20269;-61
2022/06/29 09:55:41;;;;;;;5.78;3.25;;;;;;;;;;5075728;28;20221;-61
2022/06/29 09:58:08;;;;;;;3.45;3.25;;;;;;;;;;5074453;28;20227;-63
2022/06/29 10:03:19;;;;;;;5.32;3.08;;;;;;;;;;5075587;28;20269;-63
2022/06/29 10:06:04;;;;;;;3.65;3.35;;;;;;;;;;5073875;28;20223;-62
2022/06/29 10:08:33;;;;;;;5.18;3.10;;;;;;;;;;5072528;28;20275;-63
2022/06/29 10:13:39;;;;;;;4.15;3.80;;;;;;;;;;5074385;28;20208;-64
2022/06/29 10:13:51;;;;;;;3.58;3.35;;;;;;;;;;5071784;28;20207;-63
2022/06/29 10:16:22;;;;;;;6.75;3.70;;;;;;;;;;5074955;28;20212;-62
2022/06/29 10:18:56;;;;;;;3.97;3.58;;;;;;;;;;5074720;28;20910;-63
2022/06/29 10:21:24;;;;;;;3.47;3.28;;;;;;;;;;5073144;28;20448;-63
2022/06/29 10:23:52;;;;;;;6.90;3.55;;;;;;;;;;5076048;28;20383;-63
2022/06/29 10:26:41;;;;;;;3.17;3.05;;;;;;;;;;5071364;28;20515;-63
2022/06/29 10:29:26;;;;;;;3.75;3.47;;;;;;;;;;5072453;28;20216;-63
2022/06/29 10:31:59;;;;;;;5.28;3.13;;;;;;;;;;5072825;28;20273;-63
2022/06/29 10:34:37;;;;;;;6.18;3.53;;;;;;;;;;5071408;28;20220;-63
2022/06/29 10:37:07;;;;;;;3.10;2.80;;;;;;;;;;5075208;28;20310;-62
2022/06/29 10:39:51;;;;;;;3.45;3.35;;;;;;;;;;5075530;28;20211;-63
2022/06/29 10:45:14;;;;;;;5.28;3.05;;;;;;;;;;5068944;28;20444;-64
2022/06/29 10:47:42;;;;;;;3.63;3.38;;;;;;;;;;5074099;28;20207;-62
2022/06/29 10:50:24;;;;;;;4.55;4.18;;;;;;;;;;5074336;28;20242;-63
2022/06/29 10:52:51;;;;;;;3.40;3.13;;;;;;;;;;5072771;28;20546;-63
2022/06/29 10:55:19;;;;;;;3.85;3.55;;;;;;;;;;5074746;28;20212;-61
2022/06/29 10:57:46;;;;;;;5.93;3.92;;;;;;;;;;5073857;28;20234;-62
2022/06/29 11:00:15;;;;;;;3.85;3.53;;;;;;;;;;5074194;28;20215;-63
2022/06/29 11:02:42;;;;;;;3.38;3.05;;;;;;;;;;5074160;28;20381;-62
2022/06/29 11:05:09;;;;;;;4.03;3.42;;;;;;;;;;5074108;28;20228;-62
2022/06/29 11:13:04;;;;;;;4.63;4.18;;;;;;;;;;5071641;28;20218;-62
2022/06/29 11:15:41;;;;;;;3.50;3.20;;;;;;;;;;5073753;28;20211;-63
2022/06/29 11:18:08;;;;;;;3.53;2.97;;;;;;;;;;5073668;28;20239;-62
2022/06/29 11:20:34;;;;;;;3.92;3.47;;;;;;;;;;5063592;28;20550;-62
2022/06/29 11:23:03;;;;;;;5.55;3.33;;;;;;;;;;5071347;28;20208;-62
2022/06/29 11:25:36;;;;;;;3.63;3.42;;;;;;;;;;5072995;28;20434;-63
2022/06/29 11:28:03;;;;;;;3.97;3.53;;;;;;;;;;5073404;28;20207;-62
2022/06/29 11:30:29;;;;;;;3.13;2.80;;;;;;;;;;5073129;28;20678;-60
2022/06/29 11:32:55;;;;;;;3.67;3.30;;;;;;;;;;5071267;28;20946;-60
2022/06/29 11:35:22;;;;;;;6.30;3.28;;;;;;;;;;5073813;28;20208;-60
2022/06/29 11:37:49;;;;;;;3.55;3.25;;;;;;;;;;5072997;28;20223;-61
2022/06/29 11:40:34;;;;;;;4.82;3.55;;;;;;;;;;5073255;28;20211;-60
2022/06/29 11:43:05;;;;;;;3.95;3.65;;;;;;;;;;5073626;28;20215;-60
2022/06/29 11:45:39;;;;;;;5.80;3.15;;;;;;;;;;5071870;28;20212;-61
2022/06/29 11:48:10;;;;;;;7.05;3.38;;;;;;;;;;5073532;28;20473;-61
2022/06/29 11:50:41;;;;;;;4.20;3.63;;;;;;;;;;5073504;28;20471;-61
2022/06/29 11:53:08;;;;;;;4.32;3.63;;;;;;;;;;5073557;28;20212;-62
2022/06/29 11:55:40;;;;;;;4.68;3.38;;;;;;;;;;5073545;28;20211;-62
2022/06/29 11:58:10;;;;;;;6.03;3.20;;;;;;;;;;5073201;28;20228;-61
2022/06/29 12:00:38;;;;;;;5.32;3.25;;;;;;;;;;5073120;28;20212;-60
2022/06/29 12:03:04;;;;;;;6.25;3.15;;;;;;;;;;5073891;28;20212;-60
2022/06/29 12:05:30;;;;;;;5.10;3.25;;;;;;;;;;5073245;28;20418;-61
2022/06/29 12:07:56;;;;;;;4.57;3.60;;;;;;;;;;5073393;28;20208;-61
2022/06/29 12:10:23;;;;;;;6.65;3.88;;;;;;;;;;5073726;28;20262;-61
2022/06/29 12:12:49;;;;;;;4.28;3.50;;;;;;;;;;5075939;28;20215;-61
2022/06/29 12:15:17;;;;;;;5.25;3.90;;;;;;;;;;5073752;28;20212;-61
2022/06/29 12:17:44;;;;;;;6.00;3.63;;;;;;;;;;5068711;28;20566;-61
2022/06/29 12:20:10;;;;;;;9.13;3.88;;;;;;;;;;5072028;28;20216;-61
2022/06/29 12:22:37;;;;;;;3.55;3.35;;;;;;;;;;5077707;28;20283;-61
2022/06/29 12:25:03;;;;;;;3.97;3.67;;;;;;;;;;5077527;28;20226;-61
2022/06/29 12:27:30;;;;;;;6.60;4.38;;;;;;;;;;5074527;28;20208;-61
2022/06/29 12:29:56;;;;;;;4.53;4.10;;;;;;;;;;5077390;28;20223;-60
2022/06/29 12:32:24;;;;;;;6.28;3.90;;;;;;;;;;5077375;28;20207;-60
2022/06/29 12:34:50;;;;;;;5.90;3.63;;;;;;;;;;5077664;28;20471;-63
2022/06/29 12:37:18;;;;;;;5.07;3.58;;;;;;;;;;5075636;28;20495;-60
2022/06/29 12:39:44;;;;;;;6.95;3.45;;;;;;;;;;5076928;28;20211;-61
2022/06/29 12:42:10;;;;;;;5.50;3.30;;;;;;;;;;5076419;28;20275;-61
2022/06/29 12:44:37;;;;;;;7.55;3.58;;;;;;;;;;5069888;28;20249;-64
2022/06/29 12:47:03;;;;;;;3.42;3.08;;;;;;;;;;5075957;28;20254;-63
2022/06/29 12:49:31;;;;;;;6.47;2.95;;;;;;;;;;5076995;28;20508;-64
2022/06/29 12:51:57;;;;;;;3.67;2.70;;;;;;;;;;5076158;28;20254;-64
2022/06/29 12:54:23;;;;;;;5.20;3.20;;;;;;;;;;5076751;28;20211;-63
2022/06/29 12:56:50;;;;;;;8.23;3.40;;;;;;;;;;5076962;28;20219;-62
2022/06/29 12:59:16;;;;;;;4.13;2.78;;;;;;;;;;5076382;28;20241;-63
2022/06/29 13:01:43;;;;;;;6.75;3.28;;;;;;;;;;5076301;28;20212;-63
2022/06/29 13:04:09;;;;;;;5.55;3.15;;;;;;;;;;5076264;28;20196;-61
2022/06/29 13:06:36;;;;;;;3.03;2.83;;;;;;;;;;5076095;28;20327;-63
2022/06/29 13:09:03;;;;;;;3.50;3.17;;;;;;;;;;5075480;28;20208;-62
2022/06/29 13:11:29;;;;;;;5.20;3.30;;;;;;;;;;5075886;28;20219;-63
2022/06/29 13:13:55;;;;;;;3.42;2.95;;;;;;;;;;5076358;28;20253;-62
2022/06/29 13:16:22;;;;;;;4.30;2.83;;;;;;;;;;5076478;28;20212;-62
2022/06/29 13:18:48;;;;;;;6.60;2.95;;;;;;;;;;5075509;28;20239;-63
2022/06/29 13:21:14;;;;;;;10.13;3.80;;;;;;;;;;5077002;28;20212;-62
2022/06/29 13:23:42;;;;;;;4.00;2.65;;;;;;;;;;5075879;28;20527;-62
2022/06/29 13:26:08;;;;;;;6.70;2.95;;;;;;;;;;5076022;28;20424;-62
2022/06/29 13:28:36;;;;;;;5.85;2.90;;;;;;;;;;5075542;28;20444;-62
2022/06/29 13:31:02;;;;;;;4.80;2.92;;;;;;;;;;5075969;28;20220;-63
2022/06/29 13:33:29;;;;;;;3.83;2.92;;;;;;;;;;5075395;28;20250;-63
2022/06/29 13:35:55;;;;;;;5.38;2.90;;;;;;;;;;5075554;28;20219;-62
2022/06/29 13:38:22;;;;;;;5.30;3.13;;;;;;;;;;5075577;28;20236;-63
2022/06/29 13:40:49;;;;;;;5.50;2.97;;;;;;;;;;5075150;28;20269;-62
2022/06/29 13:43:15;;;;;;;4.90;3.15;;;;;;;;;;5075783;28;20212;-63
2022/06/29 13:45:43;;;;;;;9.68;3.47;;;;;;;;;;5075459;28;20377;-63
2022/06/29 13:48:09;;;;;;;5.65;3.00;;;;;;;;;;5075347;28;20557;-63
2022/06/29 13:50:36;;;;;;;3.15;2.70;;;;;;;;;;5074979;28;20627;-62
2022/06/29 13:53:02;;;;;;;4.57;3.35;;;;;;;;;;5075481;28;20464;-62
2022/06/29 13:55:28;;;;;;;6.63;2.58;;;;;;;;;;5075822;28;20547;-63
2022/06/29 13:57:56;;;;;;;2.97;2.72;;;;;;;;;;5074624;28;20558;-63
2022/06/29 14:00:22;;;;;;;7.30;3.22;;;;;;;;;;5071350;28;20463;-63
2022/06/29 14:02:48;;;;;;;4.28;2.90;;;;;;;;;;5075419;28;20219;-63
2022/06/29 14:05:15;;;;;;;6.13;2.80;;;;;;;;;;5074788;28;20232;-64
2022/06/29 14:07:41;;;;;;;5.50;3.08;;;;;;;;;;5074813;28;20212;-63
2022/06/29 14:10:07;;;;;;;6.78;3.03;;;;;;;;;;5073967;28;20212;-63
2022/06/29 14:12:34;;;;;;;2.90;2.80;;;;;;;;;;5075380;28;20258;-63
2022/06/29 14:15:01;;;;;;;3.15;2.95;;;;;;;;;;5074953;28;20482;-64
2022/06/29 14:17:28;;;;;;;6.07;2.80;;;;;;;;;;5073610;28;20212;-64
2022/06/29 14:19:54;;;;;;;7.57;3.25;;;;;;;;;;5073881;28;20742;-64
2022/06/29 14:22:20;;;;;;;4.00;2.60;;;;;;;;;;5074598;28;20523;-64
2022/06/29 14:24:46;;;;;;;7.28;2.88;;;;;;;;;;5074972;28;20531;-64
2022/06/29 14:27:12;;;;;;;4.05;2.75;;;;;;;;;;5074054;28;20531;-64
2022/06/29 14:29:39;;;;;;;5.97;3.22;;;;;;;;;;5073788;28;20231;-64
2022/06/29 14:32:07;;;;;;;10.07;3.35;;;;;;;;;;5073088;28;20215;-65
2022/06/29 14:34:33;;;;;;;3.85;2.85;;;;;;;;;;5074498;28;20211;-63
2022/06/29 14:37:00;;;;;;;3.45;2.95;;;;;;;;;;5073807;28;20211;-63
2022/06/29 14:39:26;;;;;;;6.10;3.20;;;;;;;;;;5074060;28;20250;-63
2022/06/29 14:41:53;;;;;;;4.77;3.10;;;;;;;;;;5072907;28;20513;-71
2022/06/29 14:44:19;;;;;;;6.95;2.85;;;;;;;;;;5074648;28;20283;-71
2022/06/29 14:46:45;;;;;;;5.93;3.10;;;;;;;;;;5074182;28;20471;-71
2022/06/29 14:49:13;;;;;;;7.05;3.20;;;;;;;;;;5073580;28;20211;-71
2022/06/29 14:51:39;;;;;;;5.75;2.83;;;;;;;;;;5073636;28;20249;-71
2022/06/29 14:54:05;;;;;;;5.97;3.10;;;;;;;;;;5073875;28;20218;-70
2022/06/29 14:56:32;;;;;;;6.20;3.20;;;;;;;;;;5073613;28;20211;-70
2022/06/29 14:58:58;;;;;;;8.63;3.33;;;;;;;;;;5073351;28;20238;-70
2022/06/29 15:01:25;;;;;;;4.57;2.83;;;;;;;;;;5074106;28;20449;-70